sensor_id;sensor_type;location;lat;lon;timestamp;P1;durP1;ratioP1;P2;durP2;ratioP2
24153;SDS011;12312;53.362;-1.518;2023-04-01T00:01:07;23.45;;;7.63;;
24153;SDS011;12312;53.362;-1.518;2023-04-01T00:03:53;15.80;;;7.20;;
24153;SDS011;12312;53.362;-1.518;2023-04-01T00:06:38;14.82;;;6.53;;
24153;SDS011;12312;53.362;-1.518;2023-04-01T00:09:22;14.57;;;6.22;;
24153;SDS011;12312;53.362;-1.518;2023-04-01T00:12:06;15.00;;;6.30;;
24153;SDS011;12312;53.362;-1.518;2023-04-01T00:14:50;17.02;;;7.13;;
24153;SDS011;12312;53.362;-1.518;2023-04-01T00:17:35;14.45;;;7.60;;
24153;SDS011;12312;53.362;-1.518;2023-04-01T00:20:19;18.25;;;8.30;;
24153;SDS011;12312;53.362;-1.518;2023-04-01T00:23:03;17.90;;;8.50;;
24153;SDS011;12312;53.362;-1.518;2023-04-01T00:25:49;19.02;;;7.57;;
24153;SDS011;12312;53.362;-1.518;2023-04-01T00:28:34;14.38;;;6.60;;
24153;SDS011;12312;53.362;-1.518;2023-04-01T00:31:19;16.98;;;7.32;;
24153;SDS011;12312;53.362;-1.518;2023-04-01T00:34:04;10.73;;;5.93;;
24153;SDS011;12312;53.362;-1.518;2023-04-01T00:36:48;13.35;;;6.43;;
24153;SDS011;12312;53.362;-1.518;2023-04-01T00:39:32;12.73;;;4.93;;
24153;SDS011;12312;53.362;-1.518;2023-04-01T00:42:17;15.18;;;5.18;;
24153;SDS011;12312;53.362;-1.518;2023-04-01T00:45:23;14.63;;;6.20;;
24153;SDS011;12312;53.362;-1.518;2023-04-01T00:48:19;11.77;;;6.45;;
24153;SDS011;12312;53.362;-1.518;2023-04-01T00:51:11;13.00;;;6.55;;
24153;SDS011;12312;53.362;-1.518;2023-04-01T00:53:59;16.55;;;6.60;;
24153;SDS011;12312;53.362;-1.518;2023-04-01T00:56:46;12.38;;;5.88;;
24153;SDS011;12312;53.362;-1.518;2023-04-01T00:59:45;11.15;;;6.20;;
24153;SDS011;12312;53.362;-1.518;2023-04-01T01:02:31;11.00;;;5.80;;
24153;SDS011;12312;53.362;-1.518;2023-04-01T01:05:16;11.68;;;6.00;;
24153;SDS011;12312;53.362;-1.518;2023-04-01T01:08:09;13.13;;;5.75;;
24153;SDS011;12312;53.362;-1.518;2023-04-01T01:11:14;13.25;;;6.32;;
24153;SDS011;12312;53.362;-1.518;2023-04-01T01:14:15;9.18;;;5.25;;
24153;SDS011;12312;53.362;-1.518;2023-04-01T01:20:06;12.13;;;5.57;;
24153;SDS011;12312;53.362;-1.518;2023-04-01T01:35:54;14.80;;;6.95;;
24153;SDS011;12312;53.362;-1.518;2023-04-01T01:38:40;12.70;;;6.57;;
24153;SDS011;12312;53.362;-1.518;2023-04-01T01:41:25;12.65;;;5.50;;
24153;SDS011;12312;53.362;-1.518;2023-04-01T01:44:12;15.05;;;5.60;;
24153;SDS011;12312;53.362;-1.518;2023-04-01T01:46:59;11.40;;;5.43;;
24153;SDS011;12312;53.362;-1.518;2023-04-01T01:49:44;9.87;;;5.50;;
24153;SDS011;12312;53.362;-1.518;2023-04-01T01:52:29;11.18;;;4.93;;
24153;SDS011;12312;53.362;-1.518;2023-04-01T01:55:27;12.80;;;5.85;;
24153;SDS011;12312;53.362;-1.518;2023-04-01T02:01:05;9.98;;;6.38;;
24153;SDS011;12312;53.362;-1.518;2023-04-01T02:03:52;9.13;;;5.28;;
24153;SDS011;12312;53.362;-1.518;2023-04-01T02:06:38;13.30;;;6.05;;
24153;SDS011;12312;53.362;-1.518;2023-04-01T02:09:28;13.00;;;6.22;;
24153;SDS011;12312;53.362;-1.518;2023-04-01T02:12:13;10.32;;;5.88;;
24153;SDS011;12312;53.362;-1.518;2023-04-01T02:15:03;10.50;;;4.80;;
24153;SDS011;12312;53.362;-1.518;2023-04-01T02:17:52;13.77;;;4.85;;
24153;SDS011;12312;53.362;-1.518;2023-04-01T02:20:37;12.55;;;5.03;;
24153;SDS011;12312;53.362;-1.518;2023-04-01T02:26:09;18.58;;;5.45;;
24153;SDS011;12312;53.362;-1.518;2023-04-01T02:28:55;9.95;;;5.20;;
24153;SDS011;12312;53.362;-1.518;2023-04-01T02:31:41;8.88;;;4.32;;
24153;SDS011;12312;53.362;-1.518;2023-04-01T02:34:26;9.13;;;4.00;;
24153;SDS011;12312;53.362;-1.518;2023-04-01T02:37:11;12.05;;;5.00;;
24153;SDS011;12312;53.362;-1.518;2023-04-01T02:40:00;12.50;;;4.63;;
24153;SDS011;12312;53.362;-1.518;2023-04-01T02:42:46;8.15;;;4.78;;
24153;SDS011;12312;53.362;-1.518;2023-04-01T02:45:30;7.43;;;3.78;;
24153;SDS011;12312;53.362;-1.518;2023-04-01T02:48:14;12.40;;;4.55;;
24153;SDS011;12312;53.362;-1.518;2023-04-01T02:50:58;9.00;;;3.65;;
24153;SDS011;12312;53.362;-1.518;2023-04-01T02:53:42;8.02;;;4.13;;
24153;SDS011;12312;53.362;-1.518;2023-04-01T02:56:26;10.73;;;4.65;;
24153;SDS011;12312;53.362;-1.518;2023-04-01T02:59:10;8.77;;;3.75;;
24153;SDS011;12312;53.362;-1.518;2023-04-01T03:01:54;8.88;;;3.70;;
24153;SDS011;12312;53.362;-1.518;2023-04-01T03:04:39;9.45;;;3.10;;
24153;SDS011;12312;53.362;-1.518;2023-04-01T03:07:23;9.25;;;3.50;;
24153;SDS011;12312;53.362;-1.518;2023-04-01T03:10:07;9.23;;;3.70;;
24153;SDS011;12312;53.362;-1.518;2023-04-01T03:12:51;9.25;;;3.90;;
24153;SDS011;12312;53.362;-1.518;2023-04-01T03:15:36;8.93;;;3.88;;
24153;SDS011;12312;53.362;-1.518;2023-04-01T03:18:20;11.93;;;5.20;;
24153;SDS011;12312;53.362;-1.518;2023-04-01T03:21:21;10.05;;;4.55;;
24153;SDS011;12312;53.362;-1.518;2023-04-01T03:24:06;16.80;;;5.00;;
24153;SDS011;12312;53.362;-1.518;2023-04-01T03:26:51;11.60;;;4.75;;
24153;SDS011;12312;53.362;-1.518;2023-04-01T03:29:35;9.35;;;5.07;;
24153;SDS011;12312;53.362;-1.518;2023-04-01T03:32:19;7.90;;;3.70;;
24153;SDS011;12312;53.362;-1.518;2023-04-01T03:35:04;5.90;;;2.40;;
24153;SDS011;12312;53.362;-1.518;2023-04-01T03:37:52;10.23;;;2.90;;
24153;SDS011;12312;53.362;-1.518;2023-04-01T03:40:37;7.30;;;2.67;;
24153;SDS011;12312;53.362;-1.518;2023-04-01T03:43:22;4.43;;;2.10;;
24153;SDS011;12312;53.362;-1.518;2023-04-01T03:46:06;7.28;;;2.60;;
24153;SDS011;12312;53.362;-1.518;2023-04-01T03:48:50;6.35;;;2.67;;
24153;SDS011;12312;53.362;-1.518;2023-04-01T03:51:34;6.05;;;3.15;;
24153;SDS011;12312;53.362;-1.518;2023-04-01T03:54:19;7.57;;;2.90;;
24153;SDS011;12312;53.362;-1.518;2023-04-01T03:57:04;6.03;;;3.13;;
24153;SDS011;12312;53.362;-1.518;2023-04-01T03:59:49;5.38;;;2.72;;
24153;SDS011;12312;53.362;-1.518;2023-04-01T04:02:33;12.63;;;3.33;;
24153;SDS011;12312;53.362;-1.518;2023-04-01T04:05:19;5.40;;;2.75;;
24153;SDS011;12312;53.362;-1.518;2023-04-01T04:08:03;5.95;;;2.58;;
24153;SDS011;12312;53.362;-1.518;2023-04-01T04:10:47;6.82;;;3.05;;
24153;SDS011;12312;53.362;-1.518;2023-04-01T04:13:31;6.55;;;3.03;;
24153;SDS011;12312;53.362;-1.518;2023-04-01T04:16:16;5.45;;;2.78;;
24153;SDS011;12312;53.362;-1.518;2023-04-01T04:19:00;5.95;;;2.70;;
24153;SDS011;12312;53.362;-1.518;2023-04-01T04:21:44;6.88;;;2.92;;
24153;SDS011;12312;53.362;-1.518;2023-04-01T04:24:28;4.75;;;2.83;;
24153;SDS011;12312;53.362;-1.518;2023-04-01T04:27:13;7.40;;;3.25;;
24153;SDS011;12312;53.362;-1.518;2023-04-01T04:29:58;7.43;;;3.20;;
24153;SDS011;12312;53.362;-1.518;2023-04-01T04:32:42;10.32;;;3.42;;
24153;SDS011;12312;53.362;-1.518;2023-04-01T04:35:26;13.30;;;3.47;;
24153;SDS011;12312;53.362;-1.518;2023-04-01T04:38:10;7.78;;;3.40;;
24153;SDS011;12312;53.362;-1.518;2023-04-01T04:40:54;8.07;;;3.17;;
24153;SDS011;12312;53.362;-1.518;2023-04-01T04:43:39;7.28;;;2.90;;
24153;SDS011;12312;53.362;-1.518;2023-04-01T04:46:24;7.80;;;3.10;;
24153;SDS011;12312;53.362;-1.518;2023-04-01T04:49:09;7.20;;;3.08;;
24153;SDS011;12312;53.362;-1.518;2023-04-01T04:51:53;8.25;;;2.47;;
24153;SDS011;12312;53.362;-1.518;2023-04-01T04:54:38;8.50;;;2.22;;
24153;SDS011;12312;53.362;-1.518;2023-04-01T04:57:22;6.57;;;2.42;;
24153;SDS011;12312;53.362;-1.518;2023-04-01T05:00:06;9.65;;;3.65;;
24153;SDS011;12312;53.362;-1.518;2023-04-01T05:02:51;9.55;;;3.95;;
24153;SDS011;12312;53.362;-1.518;2023-04-01T05:05:35;8.88;;;3.65;;
24153;SDS011;12312;53.362;-1.518;2023-04-01T05:08:19;9.68;;;4.22;;
24153;SDS011;12312;53.362;-1.518;2023-04-01T05:11:06;10.38;;;3.72;;
24153;SDS011;12312;53.362;-1.518;2023-04-01T05:13:53;14.00;;;4.60;;
24153;SDS011;12312;53.362;-1.518;2023-04-01T05:16:37;12.05;;;4.05;;
24153;SDS011;12312;53.362;-1.518;2023-04-01T05:19:21;11.10;;;4.25;;
24153;SDS011;12312;53.362;-1.518;2023-04-01T05:22:05;11.48;;;4.18;;
24153;SDS011;12312;53.362;-1.518;2023-04-01T05:24:50;7.78;;;4.03;;
24153;SDS011;12312;53.362;-1.518;2023-04-01T05:27:34;9.00;;;3.63;;
24153;SDS011;12312;53.362;-1.518;2023-04-01T05:30:18;11.63;;;5.25;;
24153;SDS011;12312;53.362;-1.518;2023-04-01T05:33:03;10.95;;;5.15;;
24153;SDS011;12312;53.362;-1.518;2023-04-01T05:35:47;12.38;;;5.13;;
24153;SDS011;12312;53.362;-1.518;2023-04-01T05:38:31;18.30;;;5.75;;
24153;SDS011;12312;53.362;-1.518;2023-04-01T05:41:15;15.43;;;4.60;;
24153;SDS011;12312;53.362;-1.518;2023-04-01T05:43:59;15.52;;;5.72;;
24153;SDS011;12312;53.362;-1.518;2023-04-01T05:46:43;13.73;;;5.72;;
24153;SDS011;12312;53.362;-1.518;2023-04-01T05:49:28;8.43;;;4.95;;
24153;SDS011;12312;53.362;-1.518;2023-04-01T05:52:12;13.45;;;5.80;;
24153;SDS011;12312;53.362;-1.518;2023-04-01T05:54:56;15.55;;;5.60;;
24153;SDS011;12312;53.362;-1.518;2023-04-01T05:57:40;11.82;;;4.63;;
24153;SDS011;12312;53.362;-1.518;2023-04-01T06:00:24;48.03;;;7.53;;
24153;SDS011;12312;53.362;-1.518;2023-04-01T06:03:08;12.07;;;3.80;;
24153;SDS011;12312;53.362;-1.518;2023-04-01T06:05:53;141.68;;;9.02;;
24153;SDS011;12312;53.362;-1.518;2023-04-01T06:08:37;8.00;;;3.45;;
24153;SDS011;12312;53.362;-1.518;2023-04-01T06:24:42;9.02;;;2.90;;
24153;SDS011;12312;53.362;-1.518;2023-04-01T06:30:56;8.50;;;3.20;;
24153;SDS011;12312;53.362;-1.518;2023-04-01T06:34:32;9.00;;;3.13;;
24153;SDS011;12312;53.362;-1.518;2023-04-01T06:50:01;7.18;;;3.50;;
24153;SDS011;12312;53.362;-1.518;2023-04-01T06:52:57;8.43;;;3.55;;
24153;SDS011;12312;53.362;-1.518;2023-04-01T06:55:51;9.00;;;3.70;;
24153;SDS011;12312;53.362;-1.518;2023-04-01T06:59:24;13.35;;;4.75;;
24153;SDS011;12312;53.362;-1.518;2023-04-01T07:02:32;10.80;;;4.95;;
24153;SDS011;12312;53.362;-1.518;2023-04-01T07:05:15;12.18;;;5.03;;
24153;SDS011;12312;53.362;-1.518;2023-04-01T07:08:01;8.85;;;4.95;;
24153;SDS011;12312;53.362;-1.518;2023-04-01T07:10:53;9.02;;;4.47;;
24153;SDS011;12312;53.362;-1.518;2023-04-01T07:16:48;5.82;;;3.55;;
24153;SDS011;12312;53.362;-1.518;2023-04-01T07:19:45;10.98;;;3.63;;
24153;SDS011;12312;53.362;-1.518;2023-04-01T07:22:35;7.55;;;3.25;;
24153;SDS011;12312;53.362;-1.518;2023-04-01T07:25:29;8.40;;;3.83;;
24153;SDS011;12312;53.362;-1.518;2023-04-01T07:28:18;9.13;;;4.05;;
24153;SDS011;12312;53.362;-1.518;2023-04-01T07:38:02;8.73;;;2.55;;
24153;SDS011;12312;53.362;-1.518;2023-04-01T07:41:10;8.82;;;3.78;;
24153;SDS011;12312;53.362;-1.518;2023-04-01T07:56:22;9.35;;;3.85;;
24153;SDS011;12312;53.362;-1.518;2023-04-01T08:10:48;9.50;;;4.00;;
24153;SDS011;12312;53.362;-1.518;2023-04-01T08:13:41;11.68;;;4.72;;
24153;SDS011;12312;53.362;-1.518;2023-04-01T08:20:23;9.35;;;3.50;;
24153;SDS011;12312;53.362;-1.518;2023-04-01T08:23:22;7.53;;;3.63;;
24153;SDS011;12312;53.362;-1.518;2023-04-01T08:32:06;8.75;;;3.97;;
24153;SDS011;12312;53.362;-1.518;2023-04-01T08:35:08;11.38;;;4.15;;
24153;SDS011;12312;53.362;-1.518;2023-04-01T08:37:53;10.23;;;3.90;;
24153;SDS011;12312;53.362;-1.518;2023-04-01T08:40:54;8.18;;;4.05;;
24153;SDS011;12312;53.362;-1.518;2023-04-01T08:43:45;9.05;;;4.20;;
24153;SDS011;12312;53.362;-1.518;2023-04-01T08:49:46;9.10;;;4.00;;
24153;SDS011;12312;53.362;-1.518;2023-04-01T08:56:01;5.13;;;3.05;;
24153;SDS011;12312;53.362;-1.518;2023-04-01T08:59:02;6.05;;;4.10;;
24153;SDS011;12312;53.362;-1.518;2023-04-01T09:10:57;5.13;;;3.28;;
24153;SDS011;12312;53.362;-1.518;2023-04-01T09:17:18;7.63;;;2.92;;
24153;SDS011;12312;53.362;-1.518;2023-04-01T09:29:31;4.30;;;2.17;;
24153;SDS011;12312;53.362;-1.518;2023-04-01T09:44:00;5.40;;;2.63;;
24153;SDS011;12312;53.362;-1.518;2023-04-01T10:26:08;1.83;;;1.10;;
24153;SDS011;12312;53.362;-1.518;2023-04-01T10:28:59;2.97;;;1.30;;
24153;SDS011;12312;53.362;-1.518;2023-04-01T10:32:10;2.33;;;1.50;;
24153;SDS011;12312;53.362;-1.518;2023-04-01T10:35:45;4.10;;;1.90;;
24153;SDS011;12312;53.362;-1.518;2023-04-01T10:54:36;2.75;;;1.73;;
24153;SDS011;12312;53.362;-1.518;2023-04-01T11:03:46;2.75;;;2.35;;
24153;SDS011;12312;53.362;-1.518;2023-04-01T11:16:29;4.25;;;2.17;;
24153;SDS011;12312;53.362;-1.518;2023-04-01T11:32:12;4.75;;;2.33;;
24153;SDS011;12312;53.362;-1.518;2023-04-01T11:35:23;4.78;;;1.95;;
24153;SDS011;12312;53.362;-1.518;2023-04-01T11:38:34;5.82;;;1.80;;
24153;SDS011;12312;53.362;-1.518;2023-04-01T11:41:52;3.88;;;1.92;;
24153;SDS011;12312;53.362;-1.518;2023-04-01T12:08:55;3.33;;;1.80;;
24153;SDS011;12312;53.362;-1.518;2023-04-01T12:11:48;2.78;;;1.98;;
24153;SDS011;12312;53.362;-1.518;2023-04-01T12:17:45;3.33;;;2.17;;
24153;SDS011;12312;53.362;-1.518;2023-04-01T12:24:20;2.00;;;1.58;;
24153;SDS011;12312;53.362;-1.518;2023-04-01T12:38:51;1.50;;;1.10;;
24153;SDS011;12312;53.362;-1.518;2023-04-01T12:41:47;2.22;;;1.20;;
24153;SDS011;12312;53.362;-1.518;2023-04-01T12:51:00;5.63;;;1.85;;
24153;SDS011;12312;53.362;-1.518;2023-04-01T12:56:45;5.20;;;2.05;;
24153;SDS011;12312;53.362;-1.518;2023-04-01T12:59:50;3.13;;;1.65;;
24153;SDS011;12312;53.362;-1.518;2023-04-01T13:15:25;5.10;;;2.13;;
24153;SDS011;12312;53.362;-1.518;2023-04-01T13:18:28;3.80;;;1.80;;
24153;SDS011;12312;53.362;-1.518;2023-04-01T13:27:30;1.98;;;1.33;;
24153;SDS011;12312;53.362;-1.518;2023-04-01T13:30:26;2.67;;;1.25;;
24153;SDS011;12312;53.362;-1.518;2023-04-01T13:36:14;4.47;;;1.60;;
24153;SDS011;12312;53.362;-1.518;2023-04-01T13:42:26;5.93;;;2.65;;
24153;SDS011;12312;53.362;-1.518;2023-04-01T13:45:14;5.78;;;1.65;;
24153;SDS011;12312;53.362;-1.518;2023-04-01T14:16:31;3.28;;;1.90;;
24153;SDS011;12312;53.362;-1.518;2023-04-01T14:32:57;2.60;;;1.73;;
24153;SDS011;12312;53.362;-1.518;2023-04-01T14:39:24;5.32;;;2.13;;
24153;SDS011;12312;53.362;-1.518;2023-04-01T14:48:34;8.15;;;2.25;;
24153;SDS011;12312;53.362;-1.518;2023-04-01T14:51:39;3.53;;;1.92;;
24153;SDS011;12312;53.362;-1.518;2023-04-01T14:54:31;3.67;;;2.40;;
24153;SDS011;12312;53.362;-1.518;2023-04-01T15:00:16;4.97;;;2.45;;
24153;SDS011;12312;53.362;-1.518;2023-04-01T15:03:09;5.00;;;2.50;;
24153;SDS011;12312;53.362;-1.518;2023-04-01T15:09:17;4.60;;;2.83;;
24153;SDS011;12312;53.362;-1.518;2023-04-01T15:18:40;4.35;;;3.08;;
24153;SDS011;12312;53.362;-1.518;2023-04-01T15:21:31;8.30;;;3.05;;
24153;SDS011;12312;53.362;-1.518;2023-04-01T15:33:43;6.22;;;3.10;;
24153;SDS011;12312;53.362;-1.518;2023-04-01T15:36:47;6.50;;;3.03;;
24153;SDS011;12312;53.362;-1.518;2023-04-01T15:39:43;5.53;;;2.78;;
24153;SDS011;12312;53.362;-1.518;2023-04-01T15:42:47;3.90;;;2.95;;
24153;SDS011;12312;53.362;-1.518;2023-04-01T15:49:21;4.88;;;3.25;;
24153;SDS011;12312;53.362;-1.518;2023-04-01T15:52:19;6.05;;;3.50;;
24153;SDS011;12312;53.362;-1.518;2023-04-01T15:55:19;7.78;;;3.38;;
24153;SDS011;12312;53.362;-1.518;2023-04-01T16:19:00;12.18;;;5.35;;
24153;SDS011;12312;53.362;-1.518;2023-04-01T16:24:59;13.05;;;5.20;;
24153;SDS011;12312;53.362;-1.518;2023-04-01T16:38:01;15.65;;;5.57;;
24153;SDS011;12312;53.362;-1.518;2023-04-01T16:40:37;14.18;;;4.88;;
24153;SDS011;12312;53.362;-1.518;2023-04-01T16:43:43;15.10;;;5.18;;
24153;SDS011;12312;53.362;-1.518;2023-04-01T16:52:16;11.50;;;4.28;;
24153;SDS011;12312;53.362;-1.518;2023-04-01T16:55:20;17.02;;;6.30;;
24153;SDS011;12312;53.362;-1.518;2023-04-01T16:58:08;13.75;;;4.75;;
24153;SDS011;12312;53.362;-1.518;2023-04-01T17:01:01;14.30;;;5.65;;
24153;SDS011;12312;53.362;-1.518;2023-04-01T17:03:51;13.13;;;4.75;;
24153;SDS011;12312;53.362;-1.518;2023-04-01T17:32:15;7.15;;;4.88;;
24153;SDS011;12312;53.362;-1.518;2023-04-01T17:44:23;16.48;;;5.82;;
24153;SDS011;12312;53.362;-1.518;2023-04-01T17:57:08;10.88;;;5.78;;
24153;SDS011;12312;53.362;-1.518;2023-04-01T18:03:15;17.30;;;6.50;;
24153;SDS011;12312;53.362;-1.518;2023-04-01T18:12:20;14.13;;;6.85;;
24153;SDS011;12312;53.362;-1.518;2023-04-01T18:15:27;11.30;;;6.82;;
24153;SDS011;12312;53.362;-1.518;2023-04-01T18:21:50;12.63;;;7.85;;
24153;SDS011;12312;53.362;-1.518;2023-04-01T18:27:43;14.85;;;6.28;;
24153;SDS011;12312;53.362;-1.518;2023-04-01T18:30:30;10.30;;;5.32;;
24153;SDS011;12312;53.362;-1.518;2023-04-01T18:40:28;10.82;;;5.80;;
24153;SDS011;12312;53.362;-1.518;2023-04-01T18:49:33;14.82;;;6.25;;
24153;SDS011;12312;53.362;-1.518;2023-04-01T18:58:34;11.73;;;6.30;;
24153;SDS011;12312;53.362;-1.518;2023-04-01T19:16:43;16.00;;;6.88;;
24153;SDS011;12312;53.362;-1.518;2023-04-01T19:25:38;383.40;;;31.20;;
24153;SDS011;12312;53.362;-1.518;2023-04-01T19:46:41;13.32;;;7.32;;
24153;SDS011;12312;53.362;-1.518;2023-04-01T19:52:45;12.25;;;7.00;;
24153;SDS011;12312;53.362;-1.518;2023-04-01T19:55:47;14.82;;;7.22;;
24153;SDS011;12312;53.362;-1.518;2023-04-01T19:59:03;14.20;;;7.53;;
24153;SDS011;12312;53.362;-1.518;2023-04-01T20:02:43;15.60;;;7.47;;
24153;SDS011;12312;53.362;-1.518;2023-04-01T20:05:27;15.57;;;7.88;;
24153;SDS011;12312;53.362;-1.518;2023-04-01T20:20:28;10.60;;;5.82;;
24153;SDS011;12312;53.362;-1.518;2023-04-01T20:26:33;11.48;;;5.47;;
24153;SDS011;12312;53.362;-1.518;2023-04-01T20:41:59;12.13;;;6.25;;
24153;SDS011;12312;53.362;-1.518;2023-04-01T20:45:17;12.27;;;6.10;;
24153;SDS011;12312;53.362;-1.518;2023-04-01T20:51:21;11.32;;;6.47;;
24153;SDS011;12312;53.362;-1.518;2023-04-01T20:54:22;12.48;;;6.45;;
24153;SDS011;12312;53.362;-1.518;2023-04-01T20:57:24;17.88;;;8.00;;
24153;SDS011;12312;53.362;-1.518;2023-04-01T21:03:48;15.80;;;4.93;;
24153;SDS011;12312;53.362;-1.518;2023-04-01T21:09:31;12.18;;;6.07;;
24153;SDS011;12312;53.362;-1.518;2023-04-01T21:12:33;11.50;;;5.43;;
24153;SDS011;12312;53.362;-1.518;2023-04-01T21:15:30;11.23;;;5.45;;
24153;SDS011;12312;53.362;-1.518;2023-04-01T21:31:05;82.45;;;8.98;;
24153;SDS011;12312;53.362;-1.518;2023-04-01T21:40:37;10.63;;;5.57;;
24153;SDS011;12312;53.362;-1.518;2023-04-01T22:00:07;11.43;;;5.45;;
24153;SDS011;12312;53.362;-1.518;2023-04-01T22:06:00;12.30;;;6.50;;
24153;SDS011;12312;53.362;-1.518;2023-04-01T22:12:30;18.02;;;6.63;;
24153;SDS011;12312;53.362;-1.518;2023-04-01T22:16:05;14.13;;;6.05;;
24153;SDS011;12312;53.362;-1.518;2023-04-01T22:30:22;20.52;;;9.65;;
24153;SDS011;12312;53.362;-1.518;2023-04-01T22:33:14;18.15;;;9.20;;
24153;SDS011;12312;53.362;-1.518;2023-04-01T22:39:19;16.27;;;7.30;;
24153;SDS011;12312;53.362;-1.518;2023-04-01T22:42:26;27.30;;;10.45;;
24153;SDS011;12312;53.362;-1.518;2023-04-01T22:54:35;25.83;;;10.55;;
24153;SDS011;12312;53.362;-1.518;2023-04-01T22:57:35;21.77;;;10.88;;
24153;SDS011;12312;53.362;-1.518;2023-04-01T23:00:26;20.63;;;10.40;;
24153;SDS011;12312;53.362;-1.518;2023-04-01T23:03:34;22.48;;;9.90;;
24153;SDS011;12312;53.362;-1.518;2023-04-01T23:06:27;25.20;;;10.70;;
24153;SDS011;12312;53.362;-1.518;2023-04-01T23:09:17;28.05;;;10.55;;
24153;SDS011;12312;53.362;-1.518;2023-04-01T23:12:12;23.98;;;11.25;;
24153;SDS011;12312;53.362;-1.518;2023-04-01T23:14:59;27.55;;;10.70;;
24153;SDS011;12312;53.362;-1.518;2023-04-01T23:24:20;22.38;;;10.60;;
24153;SDS011;12312;53.362;-1.518;2023-04-01T23:27:12;22.42;;;9.98;;
24153;SDS011;12312;53.362;-1.518;2023-04-01T23:30:03;26.23;;;9.95;;
24153;SDS011;12312;53.362;-1.518;2023-04-01T23:32:47;23.90;;;8.88;;
24153;SDS011;12312;53.362;-1.518;2023-04-01T23:35:31;20.02;;;10.38;;
24153;SDS011;12312;53.362;-1.518;2023-04-01T23:38:15;22.23;;;10.70;;
24153;SDS011;12312;53.362;-1.518;2023-04-01T23:41:00;21.98;;;9.77;;
24153;SDS011;12312;53.362;-1.518;2023-04-01T23:43:45;19.05;;;9.00;;
24153;SDS011;12312;53.362;-1.518;2023-04-01T23:46:37;58.00;;;11.52;;
24153;SDS011;12312;53.362;-1.518;2023-04-01T23:49:25;25.77;;;10.10;;
24153;SDS011;12312;53.362;-1.518;2023-04-01T23:52:25;21.77;;;10.38;;
24153;SDS011;12312;53.362;-1.518;2023-04-01T23:55:13;17.98;;;9.32;;
